Time;durP1;ratioP1;P1;durP2;ratioP2;P2;SDS_P1;SDS_P2;PMS_P1;PMS_P2;Temp;Humidity;BMP_temperature;BMP_pressure;BME280_temperature;BME280_humidity;BME280_pressure;Samples;Min_cycle;Max_cycle;Signal;HPM_P1;HPM_P2
2022/06/23 00:01:00;;;;;;;5.35;4.75;;;13.40;99.90;;;;;;5033881;28;20037;-66
2022/06/23 00:03:30;;;;;;;4.60;4.15;;;13.50;99.90;;;;;;5033509;28;20013;-66
2022/06/23 00:05:59;;;;;;;6.47;4.10;;;13.40;99.90;;;;;;5033815;28;20031;-66
2022/06/23 00:08:25;;;;;;;4.32;3.70;;;13.50;99.90;;;;;;5033462;28;20087;-66
2022/06/23 00:10:55;;;;;;;5.95;5.15;;;13.50;99.90;;;;;;5033550;28;20025;-66
2022/06/23 00:13:33;;;;;;;5.43;4.47;;;13.30;99.90;;;;;;5033870;28;20025;-66
2022/06/23 00:16:00;;;;;;;5.22;4.10;;;13.40;99.90;;;;;;5033570;28;20563;-66
2022/06/23 00:18:31;;;;;;;6.10;4.82;;;13.50;99.90;;;;;;5033373;28;20029;-66
2022/06/23 00:21:24;;;;;;;5.70;4.65;;;13.40;99.90;;;;;;5033298;28;20025;-66
2022/06/23 00:23:55;;;;;;;4.93;4.38;;;13.40;99.90;;;;;;5033588;28;20021;-66
2022/06/23 00:26:26;;;;;;;8.00;4.40;;;13.50;99.90;;;;;;5033463;28;21932;-66
2022/06/23 00:29:14;;;;;;;5.82;4.28;;;13.40;99.90;;;;;;5033231;28;20029;-66
2022/06/23 00:31:45;;;;;;;6.47;4.88;;;13.40;99.90;;;;;;5033406;28;20056;-66
2022/06/23 00:34:32;;;;;;;7.88;4.90;;;13.50;99.90;;;;;;5033370;28;20030;-66
2022/06/23 00:37:03;;;;;;;4.97;4.25;;;13.40;99.90;;;;;;5033315;28;20021;-66
2022/06/23 00:39:53;;;;;;;5.55;4.53;;;13.40;99.90;;;;;;5033023;28;20030;-66
2022/06/23 00:42:28;;;;;;;8.80;5.18;;;13.40;99.90;;;;;;5038055;23;20052;-69
2022/06/23 00:44:58;;;;;;;7.60;4.93;;;13.40;99.90;;;;;;5053536;28;20021;-69
2022/06/23 00:47:47;;;;;;;6.40;4.97;;;13.40;99.90;;;;;;5053156;28;20112;-69
2022/06/23 00:50:25;;;;;;;12.40;5.97;;;13.30;99.90;;;;;;5033567;28;20034;-69
2022/06/23 00:53:11;;;;;;;7.68;5.40;;;13.20;99.90;;;;;;5033598;28;20530;-69
2022/06/23 00:55:52;;;;;;;6.95;5.90;;;13.10;99.90;;;;;;5033499;28;20029;-69
2022/06/23 00:58:27;;;;;;;9.80;5.80;;;13.10;99.90;;;;;;5033178;28;20025;-69
2022/06/23 01:01:01;;;;;;;7.88;6.38;;;13.20;99.90;;;;;;5039315;28;20032;-69
2022/06/23 01:03:43;;;;;;;7.60;6.15;;;13.10;99.90;;;;;;5053680;28;20075;-69
2022/06/23 01:06:16;;;;;;;6.50;4.82;;;13.20;99.90;;;;;;5057123;28;20116;-69
2022/06/23 01:08:44;;;;;;;7.73;6.47;;;13.20;99.90;;;;;;5057091;28;20056;-69
2022/06/23 01:11:24;;;;;;;7.30;5.10;;;13.30;99.90;;;;;;5056856;28;20025;-69
2022/06/23 01:14:19;;;;;;;11.98;6.80;;;13.20;99.90;;;;;;5057082;28;20029;-68
2022/06/23 01:17:13;;;;;;;6.45;5.30;;;13.20;99.90;;;;;;5048043;28;20033;-69
2022/06/23 01:19:55;;;;;;;7.03;5.85;;;13.20;99.90;;;;;;5040231;28;20511;-69
2022/06/23 01:22:41;;;;;;;6.25;5.18;;;13.30;99.90;;;;;;5056630;28;20032;-68
2022/06/23 01:25:27;;;;;;;7.43;5.85;;;13.20;99.90;;;;;;5056713;28;20385;-69
2022/06/23 01:27:55;;;;;;;7.22;5.43;;;13.20;99.90;;;;;;5038594;28;20036;-68
2022/06/23 01:30:22;;;;;;;6.15;5.55;;;13.20;99.90;;;;;;5056742;28;20028;-68
2022/06/23 01:33:13;;;;;;;6.93;6.07;;;13.20;99.90;;;;;;5056511;28;20036;-69
2022/06/23 01:35:59;;;;;;;10.82;7.05;;;13.20;99.90;;;;;;5056205;28;20095;-69
2022/06/23 01:38:48;;;;;;;8.77;6.75;;;13.20;99.90;;;;;;5056572;28;20028;-69
2022/06/23 01:41:24;;;;;;;5.38;4.88;;;13.30;99.90;;;;;;5055636;28;20396;-69
2022/06/23 01:43:59;;;;;;;8.77;6.03;;;13.20;99.90;;;;;;5056274;28;20021;-69
2022/06/23 01:46:39;;;;;;;10.77;6.10;;;13.10;99.90;;;;;;5075630;28;20115;-68
2022/06/23 01:49:33;;;;;;;11.25;7.13;;;13.20;99.90;;;;;;5076037;28;20440;-69
2022/06/23 01:52:07;;;;;;;;;;;13.10;99.90;;;;;;5076956;28;20073;-69
2022/06/23 01:54:35;;;;;;;10.23;6.68;;;13.20;99.90;;;;;;5076427;28;19904;-68
2022/06/23 01:57:13;;;;;;;7.30;6.25;;;13.10;99.90;;;;;;5076122;28;20060;-68
2022/06/23 01:59:50;;;;;;;8.20;6.45;;;13.10;99.90;;;;;;5076475;28;20380;-68
2022/06/23 02:02:53;;;;;;;14.07;7.78;;;13.10;99.90;;;;;;5075792;28;20415;-68
2022/06/23 02:05:35;;;;;;;9.73;8.38;;;13.10;99.90;;;;;;5075757;28;20103;-68
2022/06/23 02:08:29;;;;;;;8.50;6.82;;;13.20;99.90;;;;;;5063286;28;20096;-68
2022/06/23 02:11:13;;;;;;;18.08;8.48;;;13.10;99.90;;;;;;5056505;28;20029;-68
2022/06/23 02:13:51;;;;;;;10.02;7.97;;;13.10;99.90;;;;;;5057112;28;20028;-68
2022/06/23 02:16:26;;;;;;;12.82;8.90;;;13.00;99.90;;;;;;5055926;28;20495;-69
2022/06/23 02:19:09;;;;;;;14.68;8.10;;;12.90;99.90;;;;;;5055834;28;20031;-69
2022/06/23 02:22:06;;;;;;;9.88;7.53;;;13.00;99.90;;;;;;5037565;28;20029;-69
2022/06/23 02:24:43;;;;;;;10.13;7.22;;;13.00;99.90;;;;;;5044552;28;20519;-69
2022/06/23 02:27:21;;;;;;;9.18;7.63;;;13.00;99.90;;;;;;5055540;28;20044;-69
2022/06/23 02:30:01;;;;;;;10.30;6.80;;;13.00;99.90;;;;;;5055621;28;20107;-69
2022/06/23 02:33:02;;;;;;;10.80;8.52;;;12.90;99.90;;;;;;5055152;28;20025;-69
2022/06/23 02:35:48;;;;;;;9.38;7.45;;;12.90;99.90;;;;;;5035554;28;20366;-69
2022/06/23 02:38:20;;;;;;;8.00;7.20;;;12.80;99.90;;;;;;5035259;28;20075;-69
2022/06/23 02:40:48;;;;;;;8.18;7.05;;;12.90;99.90;;;;;;5035173;28;20034;-69
2022/06/23 02:43:14;;;;;;;8.65;7.70;;;12.80;99.90;;;;;;5034962;28;20025;-69
2022/06/23 02:46:01;;;;;;;11.48;8.07;;;12.80;99.90;;;;;;5038255;28;20111;-69
2022/06/23 02:48:51;;;;;;;10.80;7.15;;;12.80;99.90;;;;;;5055182;28;20032;-69
2022/06/23 02:51:22;;;;;;;9.55;7.75;;;12.80;99.90;;;;;;5055251;28;20365;-69
2022/06/23 02:54:21;;;;;;;10.32;6.85;;;12.80;99.90;;;;;;5054898;28;20025;-69
2022/06/23 02:57:19;;;;;;;10.40;8.40;;;12.80;99.90;;;;;;5054828;28;20029;-68
2022/06/23 02:59:56;;;;;;;10.18;8.48;;;12.80;99.90;;;;;;5055076;28;20071;-68
2022/06/23 03:02:32;;;;;;;10.23;7.93;;;12.80;99.90;;;;;;5036790;28;20448;-69
2022/06/23 03:05:11;;;;;;;11.25;7.80;;;12.80;99.90;;;;;;5054574;28;20426;-69
2022/06/23 03:07:41;;;;;;;9.60;7.85;;;12.70;99.90;;;;;;5054882;28;20425;-69
2022/06/23 03:10:21;;;;;;;9.25;7.85;;;12.70;99.90;;;;;;5054788;28;20078;-69
2022/06/23 03:13:16;;;;;;;11.63;7.70;;;12.80;99.90;;;;;;5054582;28;20032;-69
2022/06/23 03:15:47;;;;;;;9.45;7.95;;;12.80;99.90;;;;;;5054622;28;20044;-69
2022/06/23 03:18:23;;;;;;;10.88;8.77;;;12.80;99.90;;;;;;5054411;28;20090;-69
2022/06/23 03:20:49;;;;;;;9.57;8.50;;;12.90;99.90;;;;;;5054317;28;20017;-70
2022/06/23 03:23:31;;;;;;;11.63;8.68;;;12.90;99.90;;;;;;5054342;28;20028;-69
2022/06/23 03:26:17;;;;;;;11.85;8.40;;;12.90;99.90;;;;;;5054493;28;20108;-69
2022/06/23 03:28:49;;;;;;;8.77;7.47;;;13.00;99.90;;;;;;5054516;28;20025;-69
2022/06/23 03:31:29;;;;;;;11.38;7.93;;;13.00;99.90;;;;;;5054179;28;20083;-69
2022/06/23 03:34:10;;;;;;;7.93;7.07;;;13.00;99.90;;;;;;5036797;28;20104;-69
2022/06/23 03:37:00;;;;;;;10.95;7.50;;;13.00;99.90;;;;;;5054593;28;20031;-69
2022/06/23 03:42:44;;;;;;;13.10;8.70;;;13.10;99.90;;;;;;5053931;28;20044;-68
2022/06/23 03:45:22;;;;;;;11.23;8.18;;;13.10;99.90;;;;;;5053380;28;20120;-69
2022/06/23 03:47:52;;;;;;;10.07;7.88;;;13.20;99.90;;;;;;5053986;28;20075;-69
2022/06/23 03:50:33;;;;;;;8.15;7.20;;;13.20;99.90;;;;;;5054166;28;20033;-69
2022/06/23 03:53:02;;;;;;;11.40;7.65;;;13.30;99.90;;;;;;5054057;28;20029;-69
2022/06/23 03:55:39;;;;;;;10.90;8.93;;;13.30;99.90;;;;;;5053618;28;20029;-68
2022/06/23 03:58:26;;;;;;;10.32;8.25;;;13.30;99.90;;;;;;5053909;28;20358;-69
2022/06/23 04:01:15;;;;;;;11.38;8.60;;;13.30;99.90;;;;;;5054253;28;20040;-68
2022/06/23 04:03:49;;;;;;;11.18;7.82;;;13.40;99.90;;;;;;5053900;28;20017;-68
2022/06/23 04:06:32;;;;;;;8.95;7.82;;;13.40;99.90;;;;;;5053656;28;20031;-69
2022/06/23 04:09:03;;;;;;;15.43;7.70;;;13.40;99.90;;;;;;5053593;28;20033;-69
2022/06/23 04:11:43;;;;;;;9.10;7.72;;;13.50;99.90;;;;;;5035517;28;20388;-69
2022/06/23 04:14:13;;;;;;;10.77;8.43;;;13.50;99.90;;;;;;5053565;28;20040;-69
2022/06/23 04:16:40;;;;;;;12.77;8.75;;;13.50;99.90;;;;;;5033449;28;20029;-69
2022/06/23 04:19:28;;;;;;;9.68;7.97;;;13.60;99.90;;;;;;5033769;28;20022;-68
2022/06/23 04:22:04;;;;;;;9.52;8.10;;;13.60;99.90;;;;;;5043064;28;20033;-68
2022/06/23 04:24:31;;;;;;;10.00;7.65;;;13.70;99.90;;;;;;5053496;28;20052;-68
2022/06/23 04:27:07;;;;;;;9.00;7.90;;;13.70;99.90;;;;;;5053527;28;20029;-68
2022/06/23 04:29:37;;;;;;;9.68;8.20;;;13.80;99.90;;;;;;5054060;28;20025;-68
2022/06/23 04:32:06;;;;;;;11.93;8.43;;;13.70;99.90;;;;;;5053774;28;20029;-68
2022/06/23 04:34:36;;;;;;;11.00;8.63;;;13.80;99.90;;;;;;5035594;28;20021;-68
2022/06/23 04:37:02;;;;;;;8.45;6.97;;;13.80;99.90;;;;;;5054190;28;20029;-69
2022/06/23 04:39:44;;;;;;;14.00;8.27;;;13.90;99.90;;;;;;5058287;28;20028;-68
2022/06/23 04:42:21;;;;;;;11.75;8.77;;;13.90;99.90;;;;;;5057112;28;20511;-68
2022/06/23 04:44:54;;;;;;;8.02;7.22;;;13.90;99.90;;;;;;5057648;28;20040;-69
2022/06/23 04:47:31;;;;;;;7.07;6.38;;;13.90;99.90;;;;;;5057627;28;20032;-69
2022/06/23 04:50:08;;;;;;;9.55;8.45;;;14.00;99.90;;;;;;5057823;28;20079;-69
2022/06/23 04:52:43;;;;;;;14.63;8.32;;;14.10;99.90;;;;;;5057305;28;20119;-69
2022/06/23 04:55:20;;;;;;;10.27;7.97;;;14.20;99.90;;;;;;5057382;28;20044;-69
2022/06/23 04:58:11;;;;;;;9.88;8.50;;;14.20;99.90;;;;;;5057064;28;20039;-69
2022/06/23 05:00:47;;;;;;;10.95;7.90;;;14.30;99.90;;;;;;5057184;28;20079;-69
2022/06/23 05:03:28;;;;;;;12.40;8.35;;;14.30;99.90;;;;;;5057458;28;20025;-69
2022/06/23 05:06:17;;;;;;;11.60;7.10;;;14.40;99.90;;;;;;5057231;28;20381;-69
2022/06/23 05:08:46;;;;;;;11.43;6.97;;;14.40;99.90;;;;;;5057252;28;20381;-68
2022/06/23 05:11:20;;;;;;;9.20;8.18;;;14.50;99.90;;;;;;5059582;28;20027;-69
2022/06/23 05:13:49;;;;;;;11.38;8.13;;;14.50;99.90;;;;;;5077069;28;20116;-69
2022/06/23 05:16:20;;;;;;;9.38;7.70;;;14.60;99.90;;;;;;5076840;28;20036;-69
2022/06/23 05:18:52;;;;;;;8.57;7.18;;;14.80;99.90;;;;;;5076937;28;20028;-69
2022/06/23 05:21:27;;;;;;;8.50;7.68;;;14.80;99.90;;;;;;5076522;28;20021;-69
2022/06/23 05:24:18;;;;;;;8.65;7.53;;;14.90;99.90;;;;;;5076938;28;20040;-69
2022/06/23 05:27:07;;;;;;;10.40;6.95;;;15.00;99.90;;;;;;5071381;28;20484;-69
2022/06/23 05:29:49;;;;;;;10.80;7.90;;;15.10;99.90;;;;;;5056790;28;20496;-69
2022/06/23 05:32:45;;;;;;;7.32;6.63;;;15.20;99.90;;;;;;5038541;28;20021;-68
2022/06/23 05:35:30;;;;;;;9.15;7.53;;;15.30;99.90;;;;;;5056385;28;20032;-68
2022/06/23 05:38:03;;;;;;;9.90;7.60;;;15.40;99.90;;;;;;5056590;28;20029;-69
2022/06/23 05:40:51;;;;;;;9.82;6.55;;;15.50;99.90;;;;;;5056349;28;20027;-69
2022/06/23 05:43:17;;;;;;;6.60;5.75;;;15.50;99.90;;;;;;5055968;28;20041;-69
2022/06/23 05:45:56;;;;;;;8.93;6.57;;;15.60;99.90;;;;;;5056145;28;20021;-69
2022/06/23 05:48:28;;;;;;;9.18;6.82;;;15.70;99.90;;;;;;5056448;28;20024;-69
2022/06/23 05:51:02;;;;;;;7.90;6.45;;;15.70;99.90;;;;;;5055722;28;20025;-69
2022/06/23 05:53:46;;;;;;;7.07;5.80;;;15.80;99.90;;;;;;5056532;28;20029;-69
2022/06/23 05:56:30;;;;;;;9.63;7.25;;;15.90;99.90;;;;;;5055865;28;20108;-69
2022/06/23 05:59:11;;;;;;;12.32;6.93;;;16.00;99.90;;;;;;5056215;28;20032;-68
2022/06/23 06:02:10;;;;;;;9.25;5.95;;;16.00;99.90;;;;;;5055951;28;20029;-68
2022/06/23 06:04:43;;;;;;;10.75;6.57;;;16.00;99.90;;;;;;5051896;28;20051;-70
2022/06/23 06:07:14;;;;;;;8.98;5.85;;;16.10;99.90;;;;;;5055981;28;20112;-68
2022/06/23 06:09:40;;;;;;;8.10;6.15;;;16.20;99.90;;;;;;5055828;28;20485;-68
2022/06/23 06:12:08;;;;;;;8.18;5.85;;;16.20;99.90;;;;;;5055689;28;20033;-69
2022/06/23 06:14:39;;;;;;;6.28;5.45;;;16.20;99.90;;;;;;5055651;28;20071;-68
2022/06/23 06:17:06;;;;;;;7.97;7.15;;;16.40;99.90;;;;;;5055831;28;20490;-68
2022/06/23 06:19:33;;;;;;;9.68;7.28;;;16.40;99.90;;;;;;5056323;28;20346;-68
2022/06/23 06:22:24;;;;;;;9.02;5.82;;;16.30;99.90;;;;;;5055418;28;20025;-68
2022/06/23 06:24:53;;;;;;;13.05;8.95;;;16.40;99.90;;;;;;5055735;28;20024;-68
2022/06/23 06:27:19;;;;;;;13.85;8.25;;;16.40;99.90;;;;;;5055650;28;20035;-68
2022/06/23 06:29:47;;;;;;;12.00;9.00;;;16.50;99.90;;;;;;5055371;28;20099;-68
2022/06/23 06:32:29;;;;;;;14.35;8.75;;;16.50;99.90;;;;;;5055492;28;20028;-68
2022/06/23 06:35:14;;;;;;;13.07;9.20;;;16.50;99.90;;;;;;5055784;28;20106;-69
2022/06/23 06:37:43;;;;;;;9.93;7.60;;;16.50;99.90;;;;;;5055591;28;20048;-68
2022/06/23 06:40:11;;;;;;;11.73;8.68;;;16.50;99.90;;;;;;5056061;28;20086;-68
2022/06/23 06:42:42;;;;;;;10.68;9.02;;;16.50;99.90;;;;;;5067814;22;20234;-67
2022/06/23 06:45:12;;;;;;;15.20;8.68;;;16.50;99.90;;;;;;5035160;28;20025;-66
2022/06/23 06:47:40;;;;;;;21.48;10.52;;;16.50;99.90;;;;;;5035093;28;20120;-66
2022/06/23 06:50:29;;;;;;;16.27;11.77;;;16.40;99.90;;;;;;5034851;28;20021;-66
2022/06/23 06:52:56;;;;;;;15.85;11.25;;;16.50;99.90;;;;;;5034204;28;20041;-66
2022/06/23 06:55:38;;;;;;;15.25;11.07;;;16.50;99.90;;;;;;5035004;28;20060;-66
2022/06/23 06:58:15;;;;;;;16.55;10.93;;;16.50;99.90;;;;;;5035104;28;20120;-66
2022/06/23 07:00:55;;;;;;;17.30;10.95;;;16.70;99.90;;;;;;5034356;28;20512;-67
2022/06/23 07:03:23;;;;;;;15.57;10.45;;;16.90;99.90;;;;;;5034438;28;20155;-67
2022/06/23 07:05:58;;;;;;;20.20;10.65;;;17.10;99.90;;;;;;5034759;28;20108;-67
2022/06/23 07:08:57;;;;;;;19.17;11.25;;;17.30;99.90;;;;;;5034741;28;20022;-67
2022/06/23 07:11:44;;;;;;;18.30;10.00;;;17.50;99.90;;;;;;5031285;28;20037;-67
2022/06/23 07:14:25;;;;;;;16.88;9.15;;;17.70;99.90;;;;;;5034571;28;20101;-67
2022/06/23 07:16:56;;;;;;;11.43;9.32;;;17.90;99.90;;;;;;5034541;28;20033;-67
2022/06/23 07:19:30;;;;;;;12.75;10.13;;;18.20;99.90;;;;;;5034258;28;20021;-67
2022/06/23 07:22:20;;;;;;;13.70;9.57;;;18.30;99.90;;;;;;5034434;28;20108;-67
2022/06/23 07:25:16;;;;;;;14.68;10.05;;;18.30;99.90;;;;;;5071562;28;20379;-67
2022/06/23 07:27:56;;;;;;;14.18;9.10;;;18.30;99.90;;;;;;5071000;28;20052;-67
2022/06/23 07:30:30;;;;;;;11.23;9.10;;;18.50;99.90;;;;;;5050971;28;20029;-67
2022/06/23 07:33:00;;;;;;;;;;;18.60;99.90;;;;;;5050950;28;20075;-66
2022/06/23 07:35:48;;;;;;;14.57;9.40;;;18.70;99.90;;;;;;5050603;28;19909;-66
2022/06/23 07:38:32;;;;;;;17.48;10.43;;;18.60;99.90;;;;;;5050807;28;20059;-66
2022/06/23 07:41:03;;;;;;;16.48;9.35;;;18.70;99.90;;;;;;5050702;28;20025;-66
2022/06/23 07:43:44;;;;;;;12.90;10.00;;;18.80;99.90;;;;;;5050197;28;20036;-66
2022/06/23 07:46:10;;;;;;;18.27;10.32;;;19.00;99.90;;;;;;5050724;28;20032;-66
2022/06/23 07:48:37;;;;;;;12.48;9.48;;;19.10;99.90;;;;;;5050579;28;20025;-66
2022/06/23 07:51:08;;;;;;;15.85;10.32;;;19.10;99.90;;;;;;5050399;28;20057;-66
2022/06/23 07:53:54;;;;;;;17.05;11.32;;;19.10;99.90;;;;;;5050027;28;20037;-65
2022/06/23 07:56:24;;;;;;;14.00;8.80;;;19.00;99.90;;;;;;5050174;28;20036;-64
2022/06/23 07:58:54;;;;;;;13.80;10.45;;;19.20;99.90;;;;;;5050020;28;20029;-66
2022/06/23 08:01:31;;;;;;;12.70;9.88;;;19.20;99.90;;;;;;5068725;28;20028;-65
2022/06/23 08:04:15;;;;;;;11.90;8.50;;;19.20;99.90;;;;;;5069955;28;20033;-65
2022/06/23 08:06:41;;;;;;;13.15;10.25;;;19.50;99.90;;;;;;5070161;28;20427;-65
2022/06/23 08:09:24;;;;;;;20.60;10.73;;;19.60;99.90;;;;;;5069829;28;20097;-65
2022/06/23 08:17:50;;;;;;;13.13;9.25;;;20.40;99.90;;;;;;5061457;28;20077;-64
2022/06/23 08:20:19;;;;;;;13.32;8.88;;;20.60;99.90;;;;;;5069593;28;20029;-64
2022/06/23 08:22:46;;;;;;;11.70;8.52;;;20.70;99.90;;;;;;5068814;28;20041;-64
2022/06/23 08:25:15;;;;;;;13.52;9.40;;;20.70;99.90;;;;;;5069778;28;20032;-64
2022/06/23 08:27:42;;;;;;;11.18;9.20;;;20.90;99.90;;;;;;5061217;28;20028;-64
2022/06/23 08:30:13;;;;;;;11.35;8.40;;;20.80;99.90;;;;;;5049809;28;20036;-64
2022/06/23 08:32:43;;;;;;;9.68;8.20;;;21.00;99.90;;;;;;5049682;28;20025;-65
2022/06/23 08:35:31;;;;;;;13.77;9.00;;;21.00;99.90;;;;;;5042523;28;20021;-64
2022/06/23 08:38:06;;;;;;;10.73;8.38;;;21.30;99.90;;;;;;5036402;28;20052;-64
2022/06/23 08:40:47;;;;;;;12.77;9.48;;;21.60;99.90;;;;;;5036148;28;20427;-64
2022/06/23 08:43:16;;;;;;;11.85;8.23;;;21.90;99.90;;;;;;5035960;28;20029;-64
2022/06/23 08:46:05;;;;;;;8.85;6.95;;;22.10;99.90;;;;;;5036008;28;20021;-64
2022/06/23 08:48:50;;;;;;;16.25;9.85;;;22.20;99.90;;;;;;5036269;28;20381;-64
2022/06/23 08:51:28;;;;;;;19.50;9.43;;;22.10;99.90;;;;;;5036441;28;20412;-64
2022/06/23 08:54:12;;;;;;;13.13;8.27;;;22.40;99.90;;;;;;5035861;28;20025;-64
2022/06/23 08:56:53;;;;;;;;;;;22.50;99.90;;;;;;5036561;28;20469;-64
2022/06/23 08:59:52;;;;;;;11.80;8.38;;;22.10;99.90;;;;;;5045363;28;19904;-64
2022/06/23 09:02:21;;;;;;;13.80;8.13;;;21.90;99.90;;;;;;5054795;28;20048;-66
2022/06/23 09:05:04;;;;;;;12.75;8.57;;;21.70;99.90;;;;;;5045235;28;20032;-65
2022/06/23 09:07:46;;;;;;;14.10;8.68;;;21.80;99.90;;;;;;5035891;28;20036;-65
2022/06/23 09:10:35;;;;;;;10.98;7.68;;;22.20;99.90;;;;;;5035834;28;20461;-64
2022/06/23 09:13:10;;;;;;;15.88;8.82;;;22.70;99.90;;;;;;5035946;28;20436;-64
2022/06/23 09:16:04;;;;;;;10.98;7.65;;;23.00;99.90;;;;;;5035694;28;20087;-65
2022/06/23 09:18:35;;;;;;;;;;;23.10;99.90;;;;;;5036117;28;20386;-65
2022/06/23 09:21:41;;;;;;;11.20;7.43;;;23.40;99.90;;;;;;5035579;28;19904;-65
2022/06/23 09:24:37;;;;;;;12.15;7.53;;;23.60;99.90;;;;;;5020614;28;20444;-65
2022/06/23 09:27:15;;;;;;;19.83;7.88;;;24.00;99.90;;;;;;5036024;28;20025;-65
2022/06/23 09:29:45;;;;;;;8.25;6.60;;;24.40;99.90;;;;;;5035507;28;20432;-65
2022/06/23 09:32:39;;;;;;;14.15;6.68;;;24.30;99.90;;;;;;5035375;28;20049;-65
2022/06/23 09:35:23;;;;;;;10.82;6.53;;;24.40;99.90;;;;;;5035383;28;20174;-65
2022/06/23 09:38:07;;;;;;;10.20;6.55;;;24.90;99.90;;;;;;5034855;28;20029;-65
2022/06/23 09:40:42;;;;;;;11.13;6.60;;;25.10;99.90;;;;;;5035059;28;20370;-65
2022/06/23 09:43:17;;;;;;;6.90;6.15;;;25.20;99.90;;;;;;5034814;28;20381;-65
2022/06/23 09:46:17;;;;;;;12.68;6.28;;;25.40;99.90;;;;;;5034971;28;20477;-65
2022/06/23 09:48:55;;;;;;;12.07;5.57;;;25.40;99.90;;;;;;5035105;28;20104;-65
2022/06/23 09:51:32;;;;;;;12.32;6.65;;;25.40;99.90;;;;;;5035228;28;20088;-66
2022/06/23 09:54:22;;;;;;;11.23;5.60;;;25.50;99.90;;;;;;5034881;28;20030;-65
2022/06/23 09:57:02;;;;;;;13.90;6.80;;;25.60;99.90;;;;;;5034952;28;20029;-65
2022/06/23 09:59:56;;;;;;;8.75;5.22;;;25.70;99.90;;;;;;5034625;28;20021;-65
2022/06/23 10:02:47;;;;;;;10.57;6.25;;;25.90;99.90;;;;;;5034399;28;20554;-65
2022/06/23 10:05:57;;;;;;;7.88;5.25;;;25.80;99.90;;;;;;5034849;28;20030;-65
2022/06/23 10:08:30;;;;;;;13.20;4.85;;;25.80;99.90;;;;;;5034687;28;20029;-65
2022/06/23 10:11:21;;;;;;;9.18;5.53;;;26.00;99.90;;;;;;5034597;28;20076;-65
2022/06/23 10:14:16;;;;;;;6.28;4.75;;;25.90;99.90;;;;;;5034476;28;20025;-65
2022/06/23 10:17:08;;;;;;;8.73;5.38;;;26.10;99.90;;;;;;5034622;28;20473;-65
2022/06/23 10:19:59;;;;;;;9.27;5.90;;;26.40;99.90;;;;;;5034439;28;20367;-65
2022/06/23 10:22:41;;;;;;;6.65;4.90;;;26.10;99.90;;;;;;5033985;28;20033;-65
2022/06/23 10:25:33;;;;;;;9.25;5.25;;;26.40;99.90;;;;;;5034408;28;20470;-65
2022/06/23 10:28:34;;;;;;;11.50;6.03;;;26.60;99.90;;;;;;5034239;28;20551;-65
2022/06/23 10:31:21;;;;;;;8.25;6.47;;;26.40;99.90;;;;;;5025321;28;20377;-65
2022/06/23 10:34:11;;;;;;;6.47;4.97;;;25.90;99.90;;;;;;5034268;28;20029;-65
2022/06/23 10:37:01;;;;;;;7.13;5.55;;;26.00;99.90;;;;;;5033892;28;20025;-65
2022/06/23 10:40:06;;;;;;;7.28;4.72;;;26.20;99.90;;;;;;5034268;28;20021;-65
2022/06/23 10:42:35;;;;;;;8.20;5.40;;;26.60;99.90;;;;;;5028069;28;20034;-65
2022/06/23 10:45:36;;;;;;;10.63;5.93;;;26.60;99.90;;;;;;5034082;28;20033;-65
2022/06/23 10:48:28;;;;;;;7.93;5.57;;;26.50;99.90;;;;;;5034031;28;20093;-65
2022/06/23 10:51:02;;;;;;;6.25;4.13;;;27.00;99.90;;;;;;5033892;28;20053;-65
2022/06/23 10:53:49;;;;;;;7.28;4.68;;;27.50;99.90;;;;;;5033863;28;20393;-65
2022/06/23 10:56:32;;;;;;;9.48;5.30;;;27.80;99.90;;;;;;5033964;28;20025;-65
2022/06/23 10:59:17;;;;;;;4.90;3.70;;;27.60;99.90;;;;;;5033536;28;20026;-65
2022/06/23 11:02:13;;;;;;;6.32;3.78;;;27.80;99.90;;;;;;5033511;28;20031;-66
2022/06/23 11:04:57;;;;;;;6.57;4.13;;;28.00;99.90;;;;;;5033468;28;20465;-65
2022/06/23 11:07:46;;;;;;;8.10;5.15;;;28.20;99.90;;;;;;5033455;28;20025;-65
2022/06/23 11:10:31;;;;;;;9.77;6.22;;;28.20;99.90;;;;;;5033620;28;20389;-65
2022/06/23 11:13:21;;;;;;;8.20;5.90;;;28.00;99.90;;;;;;5033349;28;20053;-65
2022/06/23 11:16:12;;;;;;;10.90;6.32;;;27.70;99.90;;;;;;5033658;28;20025;-65
2022/06/23 11:19:19;;;;;;;11.55;6.72;;;27.70;99.90;;;;;;5033983;28;20109;-65
2022/06/23 11:21:59;;;;;;;9.40;6.55;;;27.10;99.90;;;;;;5033780;28;20017;-65
2022/06/23 11:24:30;;;;;;;8.90;6.40;;;26.80;99.90;;;;;;5033104;28;20497;-65
2022/06/23 11:27:11;;;;;;;13.63;5.90;;;27.00;99.90;;;;;;5033687;28;20022;-65
2022/06/23 11:30:02;;;;;;;8.32;4.70;;;27.50;99.90;;;;;;5033483;28;20409;-65
2022/06/23 11:32:49;;;;;;;5.68;4.93;;;28.20;99.90;;;;;;5033190;28;20052;-65
2022/06/23 11:35:54;;;;;;;10.68;4.55;;;28.60;99.90;;;;;;5033451;28;20436;-66
2022/06/23 11:38:20;;;;;;;5.82;3.60;;;29.00;99.90;;;;;;5033135;28;20053;-65
2022/06/23 11:40:56;;;;;;;5.97;2.75;;;29.00;99.90;;;;;;5033212;28;20355;-65
2022/06/23 11:43:29;;;;;;;6.70;3.30;;;29.00;99.90;;;;;;5033054;28;20059;-65
2022/06/23 11:46:15;;;;;;;6.95;4.00;;;29.30;99.90;;;;;;5033149;28;20022;-65
2022/06/23 11:49:13;;;;;;;7.53;4.40;;;29.30;99.90;;;;;;5033386;28;20026;-66
2022/06/23 11:51:52;;;;;;;11.82;4.20;;;29.30;99.90;;;;;;5032992;28;20033;-66
2022/06/23 11:54:34;;;;;;;7.78;3.58;;;29.50;99.90;;;;;;5033325;28;20492;-65
2022/06/23 11:57:32;;;;;;;6.63;4.07;;;29.50;99.90;;;;;;5032978;28;20029;-66
2022/06/23 12:00:11;;;;;;;6.63;3.15;;;29.40;99.90;;;;;;5033301;28;20083;-65
2022/06/23 12:03:18;;;;;;;5.47;3.65;;;30.00;99.90;;;;;;5033011;28;20033;-66
2022/06/23 12:06:03;;;;;;;7.53;3.00;;;30.70;99.90;;;;;;5019366;28;20087;-66
2022/06/23 12:08:31;;;;;;;12.27;3.90;;;31.10;99.90;;;;;;5033469;28;20041;-66
2022/06/23 12:10:57;;;;;;;5.88;3.67;;;30.40;99.90;;;;;;5035606;28;20068;-66
2022/06/23 12:13:25;;;;;;;8.95;3.88;;;30.30;99.90;;;;;;5036698;28;20021;-66
2022/06/23 12:15:51;;;;;;;3.55;2.80;;;30.90;99.90;;;;;;5036587;28;20017;-65
2022/06/23 12:18:43;;;;;;;7.85;2.58;;;31.40;99.90;;;;;;5036606;28;20034;-66
2022/06/23 12:21:35;;;;;;;6.05;3.25;;;31.90;99.90;;;;;;5030849;28;20049;-66
2022/06/23 12:24:15;;;;;;;9.00;2.80;;;32.10;99.90;;;;;;5036272;28;20519;-66
2022/06/23 12:26:46;;;;;;;6.30;3.00;;;32.20;99.90;;;;;;5036738;28;20025;-66
2022/06/23 12:29:30;;;;;;;6.13;2.67;;;32.80;99.90;;;;;;5036462;28;20021;-65
2022/06/23 12:31:58;;;;;;;5.82;3.03;;;33.00;99.90;;;;;;5036626;28;20022;-66
2022/06/23 12:34:53;;;;;;;6.50;3.00;;;32.90;99.90;;;;;;5036759;28;20029;-66
2022/06/23 12:37:58;;;;;;;15.60;2.85;;;32.90;99.90;;;;;;5036432;28;20032;-66
2022/06/23 12:40:26;;;;;;;6.13;2.08;;;32.80;99.90;;;;;;5036502;28;20029;-66
2022/06/23 12:43:01;;;;;;;3.75;2.05;;;32.60;99.90;;;;;;5059980;23;20064;-68
2022/06/23 12:45:57;;;;;;;5.47;2.28;;;32.80;99.90;;;;;;5056721;28;20025;-68
2022/06/23 12:48:38;;;;;;;4.88;2.65;;;32.80;99.90;;;;;;5057640;28;20022;-68
2022/06/23 12:51:12;;;;;;;9.55;3.00;;;32.70;99.90;;;;;;5057459;28;20029;-69
2022/06/23 12:54:28;;;;;;;5.05;2.45;;;33.10;99.90;;;;;;5056193;28;20083;-69
2022/06/23 12:57:16;;;;;;;5.25;2.00;;;33.50;99.90;;;;;;5030581;28;20121;-69
2022/06/23 13:00:13;;;;;;;5.22;2.50;;;33.80;99.90;;;;;;5056416;28;20032;-68
2022/06/23 13:02:44;;;;;;;3.65;1.75;;;33.80;99.90;;;;;;5052799;28;20117;-69
2022/06/23 13:05:22;;;;;;;2.67;1.65;;;34.20;99.90;;;;;;5056081;28;20032;-69
2022/06/23 13:08:03;;;;;;;3.67;1.95;;;34.50;99.90;;;;;;5056243;28;20457;-69
2022/06/23 13:10:46;;;;;;;5.53;2.17;;;34.50;99.90;;;;;;5055807;28;20032;-69
2022/06/23 13:13:22;;;;;;;;;;;34.80;99.90;;;;;;5056293;28;20029;-69
2022/06/23 13:15:55;;;;;;;5.78;1.55;;;35.00;99.90;;;;;;5055900;28;19905;-69
2022/06/23 13:18:25;;;;;;;4.03;1.85;;;34.90;99.90;;;;;;5055919;28;20478;-69
2022/06/23 13:21:13;;;;;;;8.85;1.90;;;35.10;99.90;;;;;;5055627;28;20036;-69
2022/06/23 13:23:53;;;;;;;4.15;1.88;;;35.20;99.90;;;;;;5055434;28;20024;-69
2022/06/23 13:26:22;;;;;;;3.90;1.60;;;35.40;98.30;;;;;;5037713;28;20025;-69
2022/06/23 13:29:06;;;;;;;7.03;1.10;;;35.10;99.70;;;;;;5055706;28;20092;-69
2022/06/23 13:31:40;;;;;;;5.68;1.27;;;35.30;99.60;;;;;;5055448;28;20029;-69
2022/06/23 13:34:27;;;;;;;1.65;1.17;;;35.40;99.90;;;;;;5055952;28;20052;-69
2022/06/23 13:37:19;;;;;;;4.15;1.75;;;35.70;99.60;;;;;;5037494;28;20083;-68
2022/06/23 13:40:18;;;;;;;8.63;1.73;;;35.70;98.60;;;;;;5055285;28;20113;-69
2022/06/23 13:42:51;;;;;;;3.25;1.30;;;35.70;98.40;;;;;;5037161;28;20044;-69
2022/06/23 13:45:30;;;;;;;7.65;1.83;;;35.80;97.60;;;;;;5055521;28;20493;-69
2022/06/23 13:48:08;;;;;;;6.82;2.00;;;35.90;98.40;;;;;;5055308;28;20032;-69
2022/06/23 13:50:39;;;;;;;6.70;1.85;;;35.80;97.50;;;;;;5055645;28;20083;-69
2022/06/23 13:53:13;;;;;;;5.78;1.73;;;35.50;95.20;;;;;;5054947;28;20029;-69
2022/06/23 13:55:45;;;;;;;6.57;1.90;;;35.60;97.00;;;;;;5054903;28;20020;-69
2022/06/23 13:58:42;;;;;;;3.58;1.55;;;36.00;96.70;;;;;;5055232;28;20067;-69